sensor_id;sensor_type;location;lat;lon;timestamp;P1;durP1;ratioP1;P2;durP2;ratioP2
65560;SDS011;58166;52.100;6.308;2022-08-19T00:02:14;13.10;;;11.73;;
65560;SDS011;58166;52.100;6.308;2022-08-19T00:04:43;13.80;;;11.63;;
65560;SDS011;58166;52.100;6.308;2022-08-19T00:07:13;13.52;;;12.05;;
65560;SDS011;58166;52.100;6.308;2022-08-19T00:09:40;14.48;;;11.10;;
65560;SDS011;58166;52.100;6.308;2022-08-19T00:12:07;12.55;;;11.10;;
65560;SDS011;58166;52.100;6.308;2022-08-19T00:14:36;13.20;;;10.95;;
65560;SDS011;58166;52.100;6.308;2022-08-19T00:17:04;12.15;;;10.95;;
65560;SDS011;58166;52.100;6.308;2022-08-19T00:19:32;12.13;;;10.93;;
65560;SDS011;58166;52.100;6.308;2022-08-19T00:22:02;11.68;;;10.48;;
65560;SDS011;58166;52.100;6.308;2022-08-19T00:24:31;12.25;;;11.13;;
65560;SDS011;58166;52.100;6.308;2022-08-19T00:26:59;13.18;;;11.48;;
65560;SDS011;58166;52.100;6.308;2022-08-19T00:29:48;15.73;;;11.50;;
65560;SDS011;58166;52.100;6.308;2022-08-19T00:32:18;16.17;;;11.65;;
65560;SDS011;58166;52.100;6.308;2022-08-19T00:34:45;16.20;;;12.32;;
65560;SDS011;58166;52.100;6.308;2022-08-19T00:37:14;12.70;;;11.45;;
65560;SDS011;58166;52.100;6.308;2022-08-19T00:39:42;12.57;;;10.98;;
65560;SDS011;58166;52.100;6.308;2022-08-19T00:42:09;15.75;;;11.18;;
65560;SDS011;58166;52.100;6.308;2022-08-19T00:44:37;13.35;;;11.98;;
65560;SDS011;58166;52.100;6.308;2022-08-19T00:47:04;13.18;;;10.82;;
65560;SDS011;58166;52.100;6.308;2022-08-19T00:49:41;12.73;;;11.25;;
65560;SDS011;58166;52.100;6.308;2022-08-19T00:52:12;13.95;;;11.95;;
65560;SDS011;58166;52.100;6.308;2022-08-19T00:54:42;17.45;;;12.98;;
65560;SDS011;58166;52.100;6.308;2022-08-19T00:57:10;16.42;;;13.90;;
65560;SDS011;58166;52.100;6.308;2022-08-19T00:59:39;17.50;;;14.32;;
65560;SDS011;58166;52.100;6.308;2022-08-19T01:02:27;15.95;;;13.52;;
65560;SDS011;58166;52.100;6.308;2022-08-19T01:04:55;16.38;;;13.73;;
65560;SDS011;58166;52.100;6.308;2022-08-19T01:07:22;15.10;;;12.85;;
65560;SDS011;58166;52.100;6.308;2022-08-19T01:09:51;16.05;;;13.38;;
65560;SDS011;58166;52.100;6.308;2022-08-19T01:12:19;16.70;;;13.50;;
65560;SDS011;58166;52.100;6.308;2022-08-19T01:14:47;16.50;;;13.40;;
65560;SDS011;58166;52.100;6.308;2022-08-19T01:17:15;14.95;;;13.35;;
65560;SDS011;58166;52.100;6.308;2022-08-19T01:19:44;15.60;;;12.93;;
65560;SDS011;58166;52.100;6.308;2022-08-19T01:22:14;17.17;;;13.25;;
65560;SDS011;58166;52.100;6.308;2022-08-19T01:24:53;15.05;;;13.07;;
65560;SDS011;58166;52.100;6.308;2022-08-19T01:27:21;16.00;;;13.30;;
65560;SDS011;58166;52.100;6.308;2022-08-19T01:29:49;16.30;;;13.00;;
65560;SDS011;58166;52.100;6.308;2022-08-19T01:32:17;16.77;;;13.50;;
65560;SDS011;58166;52.100;6.308;2022-08-19T01:34:59;16.70;;;13.27;;
65560;SDS011;58166;52.100;6.308;2022-08-19T01:37:28;17.38;;;13.50;;
65560;SDS011;58166;52.100;6.308;2022-08-19T01:39:58;17.27;;;14.30;;
65560;SDS011;58166;52.100;6.308;2022-08-19T01:42:25;16.27;;;14.45;;
65560;SDS011;58166;52.100;6.308;2022-08-19T01:44:56;21.27;;;14.37;;
65560;SDS011;58166;52.100;6.308;2022-08-19T01:47:23;16.35;;;13.20;;
65560;SDS011;58166;52.100;6.308;2022-08-19T01:49:51;16.58;;;13.68;;
65560;SDS011;58166;52.100;6.308;2022-08-19T01:52:19;19.38;;;14.70;;
65560;SDS011;58166;52.100;6.308;2022-08-19T01:54:46;17.23;;;14.23;;
65560;SDS011;58166;52.100;6.308;2022-08-19T01:57:15;18.40;;;14.38;;
65560;SDS011;58166;52.100;6.308;2022-08-19T01:59:42;18.52;;;14.77;;
65560;SDS011;58166;52.100;6.308;2022-08-19T02:02:12;19.77;;;14.52;;
65560;SDS011;58166;52.100;6.308;2022-08-19T02:04:39;18.15;;;14.23;;
65560;SDS011;58166;52.100;6.308;2022-08-19T02:07:07;19.95;;;14.30;;
65560;SDS011;58166;52.100;6.308;2022-08-19T02:09:35;15.65;;;13.65;;
65560;SDS011;58166;52.100;6.308;2022-08-19T02:12:02;17.63;;;14.43;;
65560;SDS011;58166;52.100;6.308;2022-08-19T02:14:31;15.90;;;14.20;;
65560;SDS011;58166;52.100;6.308;2022-08-19T02:17:00;15.02;;;12.95;;
65560;SDS011;58166;52.100;6.308;2022-08-19T02:19:28;15.35;;;12.68;;
65560;SDS011;58166;52.100;6.308;2022-08-19T02:21:58;13.57;;;12.18;;
65560;SDS011;58166;52.100;6.308;2022-08-19T02:24:25;13.70;;;12.20;;
65560;SDS011;58166;52.100;6.308;2022-08-19T02:26:53;13.50;;;12.10;;
65560;SDS011;58166;52.100;6.308;2022-08-19T02:29:20;18.48;;;13.32;;
65560;SDS011;58166;52.100;6.308;2022-08-19T02:31:49;18.40;;;13.85;;
65560;SDS011;58166;52.100;6.308;2022-08-19T02:34:17;16.95;;;13.77;;
65560;SDS011;58166;52.100;6.308;2022-08-19T02:36:45;15.07;;;13.23;;
65560;SDS011;58166;52.100;6.308;2022-08-19T02:39:17;14.93;;;13.20;;
65560;SDS011;58166;52.100;6.308;2022-08-19T02:41:44;15.77;;;14.07;;
65560;SDS011;58166;52.100;6.308;2022-08-19T02:44:11;17.50;;;13.40;;
65560;SDS011;58166;52.100;6.308;2022-08-19T02:46:58;15.32;;;13.25;;
65560;SDS011;58166;52.100;6.308;2022-08-19T02:49:25;17.55;;;14.02;;
65560;SDS011;58166;52.100;6.308;2022-08-19T02:51:52;14.50;;;12.35;;
65560;SDS011;58166;52.100;6.308;2022-08-19T02:54:20;18.23;;;14.40;;
65560;SDS011;58166;52.100;6.308;2022-08-19T02:56:48;16.90;;;13.27;;
65560;SDS011;58166;52.100;6.308;2022-08-19T02:59:15;15.98;;;13.57;;
65560;SDS011;58166;52.100;6.308;2022-08-19T03:01:46;15.73;;;13.25;;
65560;SDS011;58166;52.100;6.308;2022-08-19T03:04:15;17.75;;;13.73;;
65560;SDS011;58166;52.100;6.308;2022-08-19T03:06:43;17.00;;;12.63;;
65560;SDS011;58166;52.100;6.308;2022-08-19T03:09:11;16.05;;;12.18;;
65560;SDS011;58166;52.100;6.308;2022-08-19T03:11:39;14.55;;;12.73;;
65560;SDS011;58166;52.100;6.308;2022-08-19T03:14:07;15.60;;;12.65;;
65560;SDS011;58166;52.100;6.308;2022-08-19T03:16:35;16.52;;;12.70;;
65560;SDS011;58166;52.100;6.308;2022-08-19T03:19:06;13.23;;;11.82;;
65560;SDS011;58166;52.100;6.308;2022-08-19T03:21:35;14.20;;;12.57;;
65560;SDS011;58166;52.100;6.308;2022-08-19T03:24:04;17.20;;;13.02;;
65560;SDS011;58166;52.100;6.308;2022-08-19T03:26:32;14.63;;;12.40;;
65560;SDS011;58166;52.100;6.308;2022-08-19T03:29:01;15.18;;;12.85;;
65560;SDS011;58166;52.100;6.308;2022-08-19T03:31:31;14.60;;;12.52;;
65560;SDS011;58166;52.100;6.308;2022-08-19T03:34:11;14.65;;;12.35;;
65560;SDS011;58166;52.100;6.308;2022-08-19T03:36:40;15.85;;;11.95;;
65560;SDS011;58166;52.100;6.308;2022-08-19T03:39:09;14.73;;;11.27;;
65560;SDS011;58166;52.100;6.308;2022-08-19T03:41:37;12.18;;;10.15;;
65560;SDS011;58166;52.100;6.308;2022-08-19T03:44:11;12.27;;;10.30;;
65560;SDS011;58166;52.100;6.308;2022-08-19T03:46:43;11.90;;;10.18;;
65560;SDS011;58166;52.100;6.308;2022-08-19T03:49:11;12.57;;;11.27;;
65560;SDS011;58166;52.100;6.308;2022-08-19T03:51:41;16.10;;;13.38;;
65560;SDS011;58166;52.100;6.308;2022-08-19T03:54:10;16.35;;;13.27;;
65560;SDS011;58166;52.100;6.308;2022-08-19T03:56:39;17.63;;;14.00;;
65560;SDS011;58166;52.100;6.308;2022-08-19T03:59:08;15.45;;;13.48;;
65560;SDS011;58166;52.100;6.308;2022-08-19T04:01:36;16.63;;;12.80;;
65560;SDS011;58166;52.100;6.308;2022-08-19T04:04:03;16.85;;;13.20;;
65560;SDS011;58166;52.100;6.308;2022-08-19T04:06:32;15.52;;;11.98;;
65560;SDS011;58166;52.100;6.308;2022-08-19T04:09:06;18.45;;;14.02;;
65560;SDS011;58166;52.100;6.308;2022-08-19T04:11:35;17.63;;;12.80;;
65560;SDS011;58166;52.100;6.308;2022-08-19T04:14:10;15.18;;;12.85;;
65560;SDS011;58166;52.100;6.308;2022-08-19T04:16:38;16.73;;;12.27;;
65560;SDS011;58166;52.100;6.308;2022-08-19T04:19:06;14.27;;;11.82;;
65560;SDS011;58166;52.100;6.308;2022-08-19T04:21:33;12.40;;;11.02;;
65560;SDS011;58166;52.100;6.308;2022-08-19T04:24:01;13.98;;;12.00;;
65560;SDS011;58166;52.100;6.308;2022-08-19T04:26:32;15.15;;;13.52;;
65560;SDS011;58166;52.100;6.308;2022-08-19T04:29:00;17.43;;;13.10;;
65560;SDS011;58166;52.100;6.308;2022-08-19T04:31:28;17.00;;;12.70;;
65560;SDS011;58166;52.100;6.308;2022-08-19T04:33:56;14.45;;;12.48;;
65560;SDS011;58166;52.100;6.308;2022-08-19T04:36:25;18.27;;;13.18;;
65560;SDS011;58166;52.100;6.308;2022-08-19T04:38:53;16.92;;;14.57;;
65560;SDS011;58166;52.100;6.308;2022-08-19T04:41:21;15.18;;;13.05;;
65560;SDS011;58166;52.100;6.308;2022-08-19T04:44:08;16.75;;;14.43;;
65560;SDS011;58166;52.100;6.308;2022-08-19T04:46:36;14.65;;;13.05;;
65560;SDS011;58166;52.100;6.308;2022-08-19T04:49:12;17.13;;;12.70;;
65560;SDS011;58166;52.100;6.308;2022-08-19T04:51:41;16.02;;;12.27;;
65560;SDS011;58166;52.100;6.308;2022-08-19T04:54:09;14.40;;;10.98;;
65560;SDS011;58166;52.100;6.308;2022-08-19T04:56:36;14.43;;;11.90;;
65560;SDS011;58166;52.100;6.308;2022-08-19T04:59:04;15.52;;;12.40;;
65560;SDS011;58166;52.100;6.308;2022-08-19T05:01:33;13.65;;;11.32;;
65560;SDS011;58166;52.100;6.308;2022-08-19T05:04:03;12.23;;;10.73;;
65560;SDS011;58166;52.100;6.308;2022-08-19T05:06:31;15.38;;;11.70;;
65560;SDS011;58166;52.100;6.308;2022-08-19T05:08:59;14.75;;;11.77;;
65560;SDS011;58166;52.100;6.308;2022-08-19T05:11:28;15.32;;;11.65;;
65560;SDS011;58166;52.100;6.308;2022-08-19T05:13:55;15.15;;;12.20;;
65560;SDS011;58166;52.100;6.308;2022-08-19T05:16:24;14.85;;;11.88;;
65560;SDS011;58166;52.100;6.308;2022-08-19T05:18:53;13.50;;;11.43;;
65560;SDS011;58166;52.100;6.308;2022-08-19T05:21:39;15.90;;;12.63;;
65560;SDS011;58166;52.100;6.308;2022-08-19T05:24:25;14.57;;;12.40;;
65560;SDS011;58166;52.100;6.308;2022-08-19T05:26:55;15.93;;;13.27;;
65560;SDS011;58166;52.100;6.308;2022-08-19T05:29:24;15.43;;;12.32;;
65560;SDS011;58166;52.100;6.308;2022-08-19T05:31:58;17.35;;;12.55;;
65560;SDS011;58166;52.100;6.308;2022-08-19T05:34:27;14.35;;;12.05;;
65560;SDS011;58166;52.100;6.308;2022-08-19T05:36:55;15.77;;;12.18;;
65560;SDS011;58166;52.100;6.308;2022-08-19T05:39:24;17.65;;;12.98;;
65560;SDS011;58166;52.100;6.308;2022-08-19T05:41:52;17.30;;;13.98;;
65560;SDS011;58166;52.100;6.308;2022-08-19T05:44:20;17.55;;;12.85;;
65560;SDS011;58166;52.100;6.308;2022-08-19T05:46:48;16.52;;;13.65;;
65560;SDS011;58166;52.100;6.308;2022-08-19T05:49:19;16.90;;;13.45;;
65560;SDS011;58166;52.100;6.308;2022-08-19T05:51:48;18.55;;;14.05;;
65560;SDS011;58166;52.100;6.308;2022-08-19T05:54:17;21.45;;;14.65;;
65560;SDS011;58166;52.100;6.308;2022-08-19T05:56:45;18.10;;;14.52;;
65560;SDS011;58166;52.100;6.308;2022-08-19T05:59:14;21.13;;;15.02;;
65560;SDS011;58166;52.100;6.308;2022-08-19T06:01:44;25.10;;;18.88;;
65560;SDS011;58166;52.100;6.308;2022-08-19T06:04:12;25.98;;;19.58;;
65560;SDS011;58166;52.100;6.308;2022-08-19T06:06:40;24.30;;;18.67;;
65560;SDS011;58166;52.100;6.308;2022-08-19T06:09:09;30.38;;;19.40;;
65560;SDS011;58166;52.100;6.308;2022-08-19T06:11:38;27.20;;;19.70;;
65560;SDS011;58166;52.100;6.308;2022-08-19T06:14:07;28.17;;;19.83;;
65560;SDS011;58166;52.100;6.308;2022-08-19T06:16:42;29.42;;;22.13;;
65560;SDS011;58166;52.100;6.308;2022-08-19T06:19:11;26.02;;;19.05;;
65560;SDS011;58166;52.100;6.308;2022-08-19T06:21:40;30.08;;;21.27;;
65560;SDS011;58166;52.100;6.308;2022-08-19T06:24:10;36.35;;;24.92;;
65560;SDS011;58166;52.100;6.308;2022-08-19T06:26:39;33.63;;;24.25;;
65560;SDS011;58166;52.100;6.308;2022-08-19T06:29:07;40.40;;;26.73;;
65560;SDS011;58166;52.100;6.308;2022-08-19T06:31:50;43.38;;;28.60;;
65560;SDS011;58166;52.100;6.308;2022-08-19T06:34:18;37.55;;;27.15;;
65560;SDS011;58166;52.100;6.308;2022-08-19T06:36:47;38.20;;;26.58;;
65560;SDS011;58166;52.100;6.308;2022-08-19T06:39:16;31.98;;;25.48;;
65560;SDS011;58166;52.100;6.308;2022-08-19T06:41:46;37.38;;;26.58;;
65560;SDS011;58166;52.100;6.308;2022-08-19T06:44:19;32.47;;;24.83;;
65560;SDS011;58166;52.100;6.308;2022-08-19T06:46:47;34.47;;;26.67;;
65560;SDS011;58166;52.100;6.308;2022-08-19T06:49:20;33.45;;;25.90;;
65560;SDS011;58166;52.100;6.308;2022-08-19T06:51:48;34.30;;;26.30;;
65560;SDS011;58166;52.100;6.308;2022-08-19T06:54:18;32.47;;;24.33;;
65560;SDS011;58166;52.100;6.308;2022-08-19T06:56:46;36.55;;;24.50;;
65560;SDS011;58166;52.100;6.308;2022-08-19T06:59:15;35.80;;;26.23;;
65560;SDS011;58166;52.100;6.308;2022-08-19T07:01:44;34.13;;;25.67;;
65560;SDS011;58166;52.100;6.308;2022-08-19T07:04:13;35.55;;;26.38;;
65560;SDS011;58166;52.100;6.308;2022-08-19T07:06:41;33.60;;;25.30;;
65560;SDS011;58166;52.100;6.308;2022-08-19T07:09:11;33.80;;;25.05;;
65560;SDS011;58166;52.100;6.308;2022-08-19T07:11:42;32.75;;;23.98;;
65560;SDS011;58166;52.100;6.308;2022-08-19T07:14:11;32.40;;;25.83;;
65560;SDS011;58166;52.100;6.308;2022-08-19T07:16:45;31.98;;;23.92;;
65560;SDS011;58166;52.100;6.308;2022-08-19T07:19:13;33.25;;;25.88;;
65560;SDS011;58166;52.100;6.308;2022-08-19T07:21:44;29.92;;;24.13;;
65560;SDS011;58166;52.100;6.308;2022-08-19T07:24:12;37.00;;;27.30;;
65560;SDS011;58166;52.100;6.308;2022-08-19T07:26:42;32.30;;;26.00;;
65560;SDS011;58166;52.100;6.308;2022-08-19T07:29:10;32.47;;;25.63;;
65560;SDS011;58166;52.100;6.308;2022-08-19T07:31:39;33.83;;;25.30;;
65560;SDS011;58166;52.100;6.308;2022-08-19T07:34:09;30.73;;;24.33;;
65560;SDS011;58166;52.100;6.308;2022-08-19T07:36:38;32.00;;;24.80;;
65560;SDS011;58166;52.100;6.308;2022-08-19T07:39:09;31.52;;;25.40;;
65560;SDS011;58166;52.100;6.308;2022-08-19T07:41:37;28.38;;;22.95;;
65560;SDS011;58166;52.100;6.308;2022-08-19T07:44:06;30.20;;;24.42;;
65560;SDS011;58166;52.100;6.308;2022-08-19T07:46:35;29.25;;;24.20;;
65560;SDS011;58166;52.100;6.308;2022-08-19T07:49:04;27.48;;;23.42;;
65560;SDS011;58166;52.100;6.308;2022-08-19T07:51:31;31.30;;;23.90;;
65560;SDS011;58166;52.100;6.308;2022-08-19T07:54:02;30.02;;;25.23;;
65560;SDS011;58166;52.100;6.308;2022-08-19T07:56:30;30.23;;;24.42;;
65560;SDS011;58166;52.100;6.308;2022-08-19T07:58:57;29.23;;;23.98;;
65560;SDS011;58166;52.100;6.308;2022-08-19T08:01:26;28.63;;;24.67;;
65560;SDS011;58166;52.100;6.308;2022-08-19T08:03:55;32.10;;;24.90;;
65560;SDS011;58166;52.100;6.308;2022-08-19T08:06:41;29.88;;;24.85;;
65560;SDS011;58166;52.100;6.308;2022-08-19T08:09:28;28.17;;;24.45;;
65560;SDS011;58166;52.100;6.308;2022-08-19T08:11:57;28.88;;;24.38;;
65560;SDS011;58166;52.100;6.308;2022-08-19T08:14:31;30.83;;;25.23;;
65560;SDS011;58166;52.100;6.308;2022-08-19T08:17:02;32.38;;;26.42;;
65560;SDS011;58166;52.100;6.308;2022-08-19T08:19:36;31.00;;;25.45;;
65560;SDS011;58166;52.100;6.308;2022-08-19T08:22:04;33.38;;;25.52;;
65560;SDS011;58166;52.100;6.308;2022-08-19T08:24:33;32.97;;;26.70;;
65560;SDS011;58166;52.100;6.308;2022-08-19T08:27:02;29.70;;;26.10;;
65560;SDS011;58166;52.100;6.308;2022-08-19T08:29:36;30.50;;;24.27;;
65560;SDS011;58166;52.100;6.308;2022-08-19T08:32:05;30.23;;;23.92;;
65560;SDS011;58166;52.100;6.308;2022-08-19T08:34:40;29.27;;;22.30;;
65560;SDS011;58166;52.100;6.308;2022-08-19T08:37:07;26.00;;;21.60;;
65560;SDS011;58166;52.100;6.308;2022-08-19T08:39:35;29.80;;;22.73;;
65560;SDS011;58166;52.100;6.308;2022-08-19T08:42:05;28.63;;;20.55;;
65560;SDS011;58166;52.100;6.308;2022-08-19T08:44:43;26.13;;;21.52;;
65560;SDS011;58166;52.100;6.308;2022-08-19T08:47:18;29.00;;;21.08;;
65560;SDS011;58166;52.100;6.308;2022-08-19T08:49:48;26.88;;;21.63;;
65560;SDS011;58166;52.100;6.308;2022-08-19T08:52:18;30.00;;;24.00;;
65560;SDS011;58166;52.100;6.308;2022-08-19T08:54:50;25.77;;;20.95;;
65560;SDS011;58166;52.100;6.308;2022-08-19T08:57:23;25.60;;;20.23;;
65560;SDS011;58166;52.100;6.308;2022-08-19T08:59:55;28.48;;;21.58;;
65560;SDS011;58166;52.100;6.308;2022-08-19T09:02:25;24.45;;;20.05;;
65560;SDS011;58166;52.100;6.308;2022-08-19T09:04:54;28.23;;;23.10;;
65560;SDS011;58166;52.100;6.308;2022-08-19T09:07:25;31.35;;;24.35;;
65560;SDS011;58166;52.100;6.308;2022-08-19T09:10:03;32.40;;;25.05;;
65560;SDS011;58166;52.100;6.308;2022-08-19T09:12:38;30.42;;;23.30;;
65560;SDS011;58166;52.100;6.308;2022-08-19T09:15:09;32.22;;;24.20;;
65560;SDS011;58166;52.100;6.308;2022-08-19T09:17:38;32.33;;;24.80;;
65560;SDS011;58166;52.100;6.308;2022-08-19T09:20:08;34.13;;;25.58;;
65560;SDS011;58166;52.100;6.308;2022-08-19T09:22:41;33.90;;;24.08;;
65560;SDS011;58166;52.100;6.308;2022-08-19T09:25:11;31.23;;;23.38;;
65560;SDS011;58166;52.100;6.308;2022-08-19T09:27:39;35.15;;;25.48;;
65560;SDS011;58166;52.100;6.308;2022-08-19T09:30:20;40.08;;;28.20;;
65560;SDS011;58166;52.100;6.308;2022-08-19T09:32:50;38.28;;;26.42;;
65560;SDS011;58166;52.100;6.308;2022-08-19T09:35:19;39.95;;;27.85;;
65560;SDS011;58166;52.100;6.308;2022-08-19T09:37:48;35.08;;;25.85;;
65560;SDS011;58166;52.100;6.308;2022-08-19T09:40:22;29.35;;;20.98;;
65560;SDS011;58166;52.100;6.308;2022-08-19T09:42:50;35.05;;;24.30;;
65560;SDS011;58166;52.100;6.308;2022-08-19T09:45:18;35.83;;;23.70;;
65560;SDS011;58166;52.100;6.308;2022-08-19T09:47:47;34.13;;;25.42;;
65560;SDS011;58166;52.100;6.308;2022-08-19T09:50:18;34.05;;;24.73;;
65560;SDS011;58166;52.100;6.308;2022-08-19T09:52:46;34.42;;;24.30;;
65560;SDS011;58166;52.100;6.308;2022-08-19T09:55:22;30.50;;;22.13;;
65560;SDS011;58166;52.100;6.308;2022-08-19T09:57:56;29.73;;;22.55;;
65560;SDS011;58166;52.100;6.308;2022-08-19T10:00:24;30.50;;;22.88;;
65560;SDS011;58166;52.100;6.308;2022-08-19T10:02:51;28.55;;;22.63;;
65560;SDS011;58166;52.100;6.308;2022-08-19T10:05:20;29.42;;;24.25;;
65560;SDS011;58166;52.100;6.308;2022-08-19T10:08:08;33.15;;;25.08;;
65560;SDS011;58166;52.100;6.308;2022-08-19T10:10:39;28.45;;;22.52;;
65560;SDS011;58166;52.100;6.308;2022-08-19T10:13:12;21.58;;;18.95;;
65560;SDS011;58166;52.100;6.308;2022-08-19T10:15:39;19.13;;;16.33;;
65560;SDS011;58166;52.100;6.308;2022-08-19T10:18:14;19.75;;;16.25;;
65560;SDS011;58166;52.100;6.308;2022-08-19T10:20:46;21.98;;;17.85;;
65560;SDS011;58166;52.100;6.308;2022-08-19T10:23:17;18.20;;;15.60;;
65560;SDS011;58166;52.100;6.308;2022-08-19T10:25:46;20.70;;;18.05;;
65560;SDS011;58166;52.100;6.308;2022-08-19T10:28:14;17.92;;;14.40;;
65560;SDS011;58166;52.100;6.308;2022-08-19T10:30:44;14.95;;;12.40;;
65560;SDS011;58166;52.100;6.308;2022-08-19T10:33:11;13.05;;;9.05;;
65560;SDS011;58166;52.100;6.308;2022-08-19T10:35:40;14.23;;;10.73;;
65560;SDS011;58166;52.100;6.308;2022-08-19T10:38:22;14.18;;;12.32;;
65560;SDS011;58166;52.100;6.308;2022-08-19T10:40:57;13.50;;;11.48;;
65560;SDS011;58166;52.100;6.308;2022-08-19T10:43:24;11.95;;;9.73;;
65560;SDS011;58166;52.100;6.308;2022-08-19T10:45:52;11.80;;;9.57;;
65560;SDS011;58166;52.100;6.308;2022-08-19T10:48:21;13.98;;;10.60;;
65560;SDS011;58166;52.100;6.308;2022-08-19T10:50:48;13.32;;;10.30;;
65560;SDS011;58166;52.100;6.308;2022-08-19T10:53:35;13.38;;;10.75;;
65560;SDS011;58166;52.100;6.308;2022-08-19T10:56:02;12.07;;;10.60;;
65560;SDS011;58166;52.100;6.308;2022-08-19T10:58:47;13.55;;;11.63;;
65560;SDS011;58166;52.100;6.308;2022-08-19T11:01:15;12.50;;;11.05;;
65560;SDS011;58166;52.100;6.308;2022-08-19T11:03:43;15.82;;;12.70;;
65560;SDS011;58166;52.100;6.308;2022-08-19T11:06:11;16.13;;;11.60;;
65560;SDS011;58166;52.100;6.308;2022-08-19T11:08:40;21.75;;;15.10;;
65560;SDS011;58166;52.100;6.308;2022-08-19T11:11:08;20.75;;;15.48;;
65560;SDS011;58166;52.100;6.308;2022-08-19T11:13:36;17.52;;;13.80;;
65560;SDS011;58166;52.100;6.308;2022-08-19T11:16:05;24.73;;;18.23;;
65560;SDS011;58166;52.100;6.308;2022-08-19T11:18:35;24.65;;;19.40;;
65560;SDS011;58166;52.100;6.308;2022-08-19T11:21:07;24.73;;;20.02;;
65560;SDS011;58166;52.100;6.308;2022-08-19T11:23:35;23.08;;;18.67;;
65560;SDS011;58166;52.100;6.308;2022-08-19T11:26:04;22.23;;;17.15;;
65560;SDS011;58166;52.100;6.308;2022-08-19T11:28:31;22.10;;;17.48;;
65560;SDS011;58166;52.100;6.308;2022-08-19T11:30:59;21.27;;;16.63;;
65560;SDS011;58166;52.100;6.308;2022-08-19T11:33:26;23.30;;;18.20;;
65560;SDS011;58166;52.100;6.308;2022-08-19T11:35:54;19.50;;;15.50;;
65560;SDS011;58166;52.100;6.308;2022-08-19T11:38:21;20.10;;;14.50;;
65560;SDS011;58166;52.100;6.308;2022-08-19T11:40:53;19.38;;;15.00;;
65560;SDS011;58166;52.100;6.308;2022-08-19T11:43:22;19.30;;;14.15;;
65560;SDS011;58166;52.100;6.308;2022-08-19T11:45:50;15.57;;;12.30;;
65560;SDS011;58166;52.100;6.308;2022-08-19T11:48:17;17.48;;;13.48;;
65560;SDS011;58166;52.100;6.308;2022-08-19T11:50:48;15.80;;;11.27;;
65560;SDS011;58166;52.100;6.308;2022-08-19T11:53:15;17.92;;;11.80;;
65560;SDS011;58166;52.100;6.308;2022-08-19T11:55:44;14.73;;;10.13;;
65560;SDS011;58166;52.100;6.308;2022-08-19T11:58:12;14.82;;;10.73;;
65560;SDS011;58166;52.100;6.308;2022-08-19T12:00:45;16.08;;;11.73;;
65560;SDS011;58166;52.100;6.308;2022-08-19T12:03:13;13.70;;;11.02;;
65560;SDS011;58166;52.100;6.308;2022-08-19T12:05:41;13.85;;;11.25;;
65560;SDS011;58166;52.100;6.308;2022-08-19T12:08:08;21.70;;;13.73;;
65560;SDS011;58166;52.100;6.308;2022-08-19T12:10:38;14.27;;;11.88;;
65560;SDS011;58166;52.100;6.308;2022-08-19T12:13:05;17.23;;;11.82;;
65560;SDS011;58166;52.100;6.308;2022-08-19T12:15:35;16.35;;;12.45;;
65560;SDS011;58166;52.100;6.308;2022-08-19T12:18:04;19.08;;;13.88;;
65560;SDS011;58166;52.100;6.308;2022-08-19T12:20:33;17.70;;;13.52;;
65560;SDS011;58166;52.100;6.308;2022-08-19T12:23:01;19.85;;;13.63;;
65560;SDS011;58166;52.100;6.308;2022-08-19T12:25:29;20.30;;;15.00;;
65560;SDS011;58166;52.100;6.308;2022-08-19T12:27:57;18.05;;;13.77;;
65560;SDS011;58166;52.100;6.308;2022-08-19T12:30:26;17.73;;;13.50;;
65560;SDS011;58166;52.100;6.308;2022-08-19T12:32:53;15.65;;;12.32;;
65560;SDS011;58166;52.100;6.308;2022-08-19T12:35:22;18.13;;;12.95;;
65560;SDS011;58166;52.100;6.308;2022-08-19T12:37:49;20.13;;;14.73;;
65560;SDS011;58166;52.100;6.308;2022-08-19T12:40:22;20.08;;;16.27;;
65560;SDS011;58166;52.100;6.308;2022-08-19T12:42:51;21.07;;;14.70;;
65560;SDS011;58166;52.100;6.308;2022-08-19T12:45:19;21.63;;;15.70;;
65560;SDS011;58166;52.100;6.308;2022-08-19T12:47:47;22.30;;;15.55;;
65560;SDS011;58166;52.100;6.308;2022-08-19T12:50:19;22.95;;;16.13;;
65560;SDS011;58166;52.100;6.308;2022-08-19T12:52:48;23.02;;;14.57;;
65560;SDS011;58166;52.100;6.308;2022-08-19T12:55:16;44.75;;;17.83;;
65560;SDS011;58166;52.100;6.308;2022-08-19T12:57:45;22.88;;;15.45;;
65560;SDS011;58166;52.100;6.308;2022-08-19T13:00:15;20.65;;;16.30;;
65560;SDS011;58166;52.100;6.308;2022-08-19T13:02:43;20.98;;;14.20;;
65560;SDS011;58166;52.100;6.308;2022-08-19T13:05:12;22.42;;;14.45;;
65560;SDS011;58166;52.100;6.308;2022-08-19T13:07:40;21.98;;;15.35;;
65560;SDS011;58166;52.100;6.308;2022-08-19T13:10:12;21.30;;;14.77;;
65560;SDS011;58166;52.100;6.308;2022-08-19T13:12:41;16.50;;;12.43;;
65560;SDS011;58166;52.100;6.308;2022-08-19T13:15:09;19.52;;;13.68;;
65560;SDS011;58166;52.100;6.308;2022-08-19T13:17:37;16.80;;;14.20;;
65560;SDS011;58166;52.100;6.308;2022-08-19T13:20:05;17.58;;;12.68;;
65560;SDS011;58166;52.100;6.308;2022-08-19T13:22:34;17.20;;;13.02;;
65560;SDS011;58166;52.100;6.308;2022-08-19T13:25:02;18.52;;;12.90;;
65560;SDS011;58166;52.100;6.308;2022-08-19T13:27:31;16.88;;;11.60;;
65560;SDS011;58166;52.100;6.308;2022-08-19T13:29:58;16.15;;;12.98;;
65560;SDS011;58166;52.100;6.308;2022-08-19T13:32:45;17.88;;;13.38;;
65560;SDS011;58166;52.100;6.308;2022-08-19T13:35:30;12.25;;;9.90;;
65560;SDS011;58166;52.100;6.308;2022-08-19T13:37:58;11.30;;;9.48;;
65560;SDS011;58166;52.100;6.308;2022-08-19T13:40:26;13.02;;;10.27;;
65560;SDS011;58166;52.100;6.308;2022-08-19T13:42:56;14.90;;;11.05;;
65560;SDS011;58166;52.100;6.308;2022-08-19T13:45:24;14.05;;;10.60;;
65560;SDS011;58166;52.100;6.308;2022-08-19T13:47:52;11.68;;;9.55;;
65560;SDS011;58166;52.100;6.308;2022-08-19T13:50:25;12.38;;;8.75;;
65560;SDS011;58166;52.100;6.308;2022-08-19T13:52:55;9.80;;;8.80;;
65560;SDS011;58166;52.100;6.308;2022-08-19T13:55:23;8.15;;;6.50;;
65560;SDS011;58166;52.100;6.308;2022-08-19T13:57:50;8.15;;;7.30;;
65560;SDS011;58166;52.100;6.308;2022-08-19T14:00:21;10.68;;;8.25;;
65560;SDS011;58166;52.100;6.308;2022-08-19T14:02:51;10.38;;;8.13;;
65560;SDS011;58166;52.100;6.308;2022-08-19T14:05:18;10.48;;;7.63;;
65560;SDS011;58166;52.100;6.308;2022-08-19T14:07:46;7.80;;;6.32;;
65560;SDS011;58166;52.100;6.308;2022-08-19T14:10:15;8.38;;;6.43;;
65560;SDS011;58166;52.100;6.308;2022-08-19T14:12:42;10.48;;;7.60;;
65560;SDS011;58166;52.100;6.308;2022-08-19T14:15:11;12.05;;;7.25;;
65560;SDS011;58166;52.100;6.308;2022-08-19T14:17:41;9.02;;;7.97;;
65560;SDS011;58166;52.100;6.308;2022-08-19T14:20:10;9.32;;;7.32;;
65560;SDS011;58166;52.100;6.308;2022-08-19T14:22:44;9.60;;;7.20;;
65560;SDS011;58166;52.100;6.308;2022-08-19T14:25:13;11.90;;;7.68;;
65560;SDS011;58166;52.100;6.308;2022-08-19T14:27:41;10.20;;;7.75;;
65560;SDS011;58166;52.100;6.308;2022-08-19T14:30:09;10.65;;;8.30;;
65560;SDS011;58166;52.100;6.308;2022-08-19T14:32:38;15.43;;;10.50;;
65560;SDS011;58166;52.100;6.308;2022-08-19T14:35:07;12.60;;;10.95;;
65560;SDS011;58166;52.100;6.308;2022-08-19T14:37:35;13.32;;;10.48;;
65560;SDS011;58166;52.100;6.308;2022-08-19T14:40:11;10.82;;;9.23;;